createdAt,value
2023-04-18T00:00:18.019Z,169.84
2023-04-18T00:01:18.024Z,171.08
2023-04-18T00:02:18.119Z,169.52
2023-04-18T00:03:18.336Z,170.53
2023-04-18T00:04:18.552Z,169.47
2023-04-18T00:05:18.206Z,172.49
2023-04-18T00:06:18.192Z,170.47
2023-04-18T00:07:18.107Z,171.22
2023-04-18T00:08:18.123Z,168.31
2023-04-18T00:09:18.189Z,168.15
2023-04-18T00:10:18.146Z,167.85
2023-04-18T00:11:18.169Z,170.55
2023-04-18T00:12:18.175Z,168.86
2023-04-18T00:13:18.194Z,168.87
2023-04-18T00:14:18.231Z,168.00
2023-04-18T00:15:18.212Z,166.74
2023-04-18T00:16:18.252Z,167.40
2023-04-18T00:17:18.236Z,168.33
2023-04-18T00:18:18.257Z,168.36
2023-04-18T00:19:18.290Z,168.44
2023-04-18T00:20:18.275Z,168.24
2023-04-18T00:21:18.284Z,168.50
2023-04-18T00:22:18.294Z,168.95
2023-04-18T00:23:18.312Z,170.01
2023-04-18T00:24:18.328Z,169.33
2023-04-18T00:25:18.344Z,169.49
2023-04-18T00:26:18.321Z,170.41
2023-04-18T00:27:18.335Z,170.37
2023-04-18T00:28:18.364Z,171.66
2023-04-18T00:29:18.407Z,171.23
2023-04-18T00:30:18.409Z,169.23
2023-04-18T00:31:18.446Z,169.47
2023-04-18T00:32:18.462Z,168.59
2023-04-18T00:33:18.456Z,169.54
2023-04-18T00:34:18.488Z,170.06
2023-04-18T00:35:18.483Z,170.61
2023-04-18T00:36:18.498Z,170.93
2023-04-18T00:37:18.494Z,172.28
2023-04-18T00:38:18.516Z,171.76
2023-04-18T00:39:18.552Z,172.31
2023-04-18T00:40:18.519Z,173.60
2023-04-18T00:41:18.549Z,172.21
2023-04-18T00:42:18.557Z,172.58
2023-04-18T00:43:18.570Z,173.03
2023-04-18T00:44:18.597Z,172.30
2023-04-18T00:45:18.598Z,172.20
2023-04-18T00:46:18.676Z,172.25
2023-04-18T00:47:18.619Z,172.58
2023-04-18T00:48:18.641Z,172.91
2023-04-18T00:49:18.670Z,172.00
2023-04-18T00:50:18.667Z,171.33
2023-04-18T00:51:18.676Z,170.94
2023-04-18T00:52:18.693Z,171.20
2023-04-18T00:53:18.692Z,172.59
2023-04-18T00:54:18.731Z,171.68
2023-04-18T00:55:18.719Z,173.27
2023-04-18T00:56:18.749Z,172.31
2023-04-18T00:57:18.753Z,172.20
2023-04-18T00:58:18.776Z,170.75
2023-04-18T00:59:18.834Z,172.58
2023-04-18T01:00:18.818Z,171.02
2023-04-18T01:01:18.834Z,170.32
2023-04-18T01:02:18.903Z,170.35
2023-04-18T01:03:18.972Z,169.94
2023-04-18T01:04:19.259Z,171.24
2023-04-18T01:05:18.890Z,172.22
2023-04-18T01:06:18.905Z,171.00
2023-04-18T01:07:18.922Z,172.14
2023-04-18T01:08:18.931Z,170.26
2023-04-18T01:09:18.977Z,170.09
2023-04-18T01:10:18.956Z,168.69
2023-04-18T01:11:18.965Z,169.56
2023-04-18T01:12:18.995Z,170.16
2023-04-18T01:13:19.003Z,170.76
2023-04-18T01:14:19.011Z,170.98
2023-04-18T01:15:19.031Z,170.77
2023-04-18T01:16:19.078Z,170.55
2023-04-18T01:17:19.122Z,170.96
2023-04-18T01:18:19.146Z,170.50
2023-04-18T01:19:19.151Z,170.12
2023-04-18T01:20:19.112Z,170.85
2023-04-18T01:21:19.141Z,170.74
2023-04-18T01:22:19.142Z,169.16
2023-04-18T01:23:19.163Z,168.54
2023-04-18T01:24:19.205Z,169.37
2023-04-18T01:25:19.200Z,168.73
2023-04-18T01:26:19.228Z,169.75
2023-04-18T01:27:19.243Z,168.87
2023-04-18T01:28:19.271Z,169.70
2023-04-18T01:29:19.267Z,169.21
2023-04-18T01:30:19.338Z,169.38
2023-04-18T01:31:19.335Z,170.23
2023-04-18T01:32:19.325Z,169.71
2023-04-18T01:33:19.345Z,169.50
2023-04-18T01:34:19.344Z,169.60
2023-04-18T01:35:19.401Z,169.63
2023-04-18T01:36:19.375Z,170.31
2023-04-18T01:37:19.424Z,169.40
2023-04-18T01:38:19.411Z,169.90
2023-04-18T01:39:19.453Z,169.59
2023-04-18T01:40:19.425Z,168.79
2023-04-18T01:41:19.447Z,170.39
2023-04-18T01:42:19.450Z,171.53
2023-04-18T01:43:19.472Z,169.96
2023-04-18T01:44:19.489Z,170.79
2023-04-18T01:45:19.493Z,169.91
2023-04-18T01:46:19.532Z,169.63
2023-04-18T01:47:19.550Z,168.75
2023-04-18T01:48:19.542Z,170.58
2023-04-18T01:49:19.560Z,171.02
2023-04-18T01:50:19.564Z,169.12
2023-04-18T01:51:19.578Z,167.41
2023-04-18T01:52:19.603Z,167.30
2023-04-18T01:53:19.606Z,167.74
2023-04-18T01:54:19.619Z,168.31
2023-04-18T01:55:19.619Z,166.52
2023-04-18T01:56:19.651Z,165.48
2023-04-18T01:57:19.654Z,167.32
2023-04-18T01:58:19.747Z,165.97
2023-04-18T01:59:19.688Z,164.82
2023-04-18T02:00:19.708Z,167.57
2023-04-18T02:01:19.823Z,167.88
2023-04-18T02:02:19.945Z,166.92
2023-04-18T02:03:19.889Z,167.32
2023-04-18T02:04:19.806Z,167.41
2023-04-18T02:05:19.777Z,167.29
2023-04-18T02:06:19.794Z,168.78
2023-04-18T02:07:19.799Z,168.00
2023-04-18T02:08:19.807Z,168.33
2023-04-18T02:09:19.846Z,167.17
2023-04-18T02:10:19.841Z,165.28
2023-04-18T02:11:19.878Z,168.05
2023-04-18T02:12:19.888Z,166.67
2023-04-18T02:13:19.895Z,166.65
2023-04-18T02:14:19.920Z,169.28
2023-04-18T02:15:19.927Z,167.87
2023-04-18T02:16:19.997Z,167.81
2023-04-18T02:17:19.958Z,167.24
2023-04-18T02:18:19.984Z,167.62
2023-04-18T02:19:19.977Z,168.90
2023-04-18T02:20:19.989Z,168.00
2023-04-18T02:21:20.009Z,167.03
2023-04-18T02:22:20.038Z,168.03
2023-04-18T02:23:20.051Z,169.48
2023-04-18T02:24:20.062Z,169.14
2023-04-18T02:25:20.085Z,168.61
2023-04-18T02:26:20.106Z,168.27
2023-04-18T02:27:20.109Z,169.51
2023-04-18T02:28:20.152Z,168.86
2023-04-18T02:29:20.136Z,167.77
2023-04-18T02:30:20.167Z,169.05
2023-04-18T02:31:20.210Z,168.13
2023-04-18T02:32:20.242Z,167.75
2023-04-18T02:33:20.205Z,168.33
2023-04-18T02:34:20.238Z,168.12
2023-04-18T02:35:20.288Z,169.48
2023-04-18T02:36:20.282Z,169.83
2023-04-18T02:37:20.294Z,169.50
2023-04-18T02:38:20.307Z,169.32
2023-04-18T02:39:20.334Z,169.63
2023-04-18T02:40:20.382Z,171.34
2023-04-18T02:41:20.392Z,169.96
2023-04-18T02:42:20.397Z,170.47
2023-04-18T02:43:20.420Z,170.33
2023-04-18T02:44:20.476Z,171.06
2023-04-18T02:45:20.476Z,171.96
2023-04-18T02:46:20.514Z,170.71
2023-04-18T02:47:20.516Z,170.05
2023-04-18T02:48:20.587Z,172.15
2023-04-18T02:49:20.549Z,170.27
2023-04-18T02:50:20.603Z,171.13
2023-04-18T02:51:20.605Z,171.29
2023-04-18T02:52:20.612Z,172.14
2023-04-18T02:53:20.643Z,170.84
2023-04-18T02:54:20.684Z,170.67
2023-04-18T02:55:20.670Z,170.73
2023-04-18T02:56:20.701Z,170.69
2023-04-18T02:57:20.704Z,171.04
2023-04-18T02:58:20.730Z,171.23
2023-04-18T02:59:20.756Z,171.06
2023-04-18T03:00:20.765Z,171.19
2023-04-18T03:01:20.844Z,173.20
2023-04-18T03:02:21.135Z,172.75
2023-04-18T03:03:20.895Z,170.96
2023-04-18T03:04:20.886Z,170.56
2023-04-18T03:05:20.879Z,171.29
2023-04-18T03:06:20.900Z,171.36
2023-04-18T03:07:20.896Z,171.30
2023-04-18T03:08:20.920Z,171.08
2023-04-18T03:09:20.945Z,169.40
2023-04-18T03:10:20.967Z,169.48
2023-04-18T03:11:20.981Z,170.48
2023-04-18T03:12:20.985Z,168.96
2023-04-18T03:13:21.007Z,168.21
2023-04-18T03:14:21.020Z,168.09
2023-04-18T03:15:21.030Z,167.29
2023-04-18T03:16:21.080Z,167.02
2023-04-18T03:17:21.087Z,166.87
2023-04-18T03:18:21.066Z,167.12
2023-04-18T03:19:21.080Z,166.77
2023-04-18T03:20:21.098Z,168.33
2023-04-18T03:21:21.114Z,167.07
2023-04-18T03:22:21.118Z,168.31
2023-04-18T03:23:21.139Z,167.63
2023-04-18T03:24:21.197Z,167.63
2023-04-18T03:25:21.202Z,169.17
2023-04-18T03:26:21.217Z,167.89
2023-04-18T03:27:21.243Z,168.50
2023-04-18T03:28:21.277Z,168.55
2023-04-18T03:29:21.282Z,169.71
2023-04-18T03:30:21.302Z,169.20
2023-04-18T03:31:21.371Z,168.80
2023-04-18T03:32:21.375Z,169.43
2023-04-18T03:33:21.341Z,169.58
2023-04-18T03:34:21.521Z,170.93
2023-04-18T03:35:21.394Z,171.70
2023-04-18T03:36:21.403Z,170.54
2023-04-18T03:37:21.426Z,170.41
2023-04-18T03:38:21.451Z,169.86
2023-04-18T03:39:21.488Z,169.92
2023-04-18T03:40:21.494Z,170.08
2023-04-18T03:41:21.535Z,168.77
2023-04-18T03:42:21.555Z,169.16
2023-04-18T03:43:21.564Z,169.72
2023-04-18T03:44:21.574Z,168.85
2023-04-18T03:45:21.643Z,167.66
2023-04-18T03:46:21.672Z,169.51
2023-04-18T03:47:21.662Z,168.87
2023-04-18T03:48:21.675Z,167.20
2023-04-18T03:49:21.681Z,168.60
2023-04-18T03:50:21.693Z,167.36
2023-04-18T03:51:21.721Z,166.26
2023-04-18T03:52:21.741Z,168.35
2023-04-18T03:53:21.762Z,170.82
2023-04-18T03:54:21.785Z,168.64
2023-04-18T03:55:21.815Z,167.48
2023-04-18T03:56:21.834Z,168.51
2023-04-18T03:57:21.873Z,168.04
2023-04-18T03:58:23.208Z,169.06
2023-04-18T03:59:21.901Z,170.71
2023-04-18T04:00:21.913Z,170.05
2023-04-18T04:01:21.948Z,169.31
2023-04-18T04:02:22.112Z,170.17
2023-04-18T04:03:22.091Z,168.30
2023-04-18T04:04:22.112Z,168.99
2023-04-18T04:05:22.032Z,167.89
2023-04-18T04:06:22.080Z,165.94
2023-04-18T04:07:22.081Z,167.53
2023-04-18T04:08:22.086Z,169.43
2023-04-18T04:09:22.112Z,168.18
2023-04-18T04:10:22.120Z,168.09
2023-04-18T04:11:22.139Z,167.71
2023-04-18T04:12:22.173Z,166.63
2023-04-18T04:13:22.191Z,166.75
2023-04-18T04:14:22.209Z,166.42
2023-04-18T04:15:22.237Z,166.44
2023-04-18T04:16:22.269Z,168.40
2023-04-18T04:17:22.322Z,169.18
2023-04-18T04:18:22.269Z,168.24
2023-04-18T04:19:22.286Z,169.86
2023-04-18T04:20:22.328Z,169.88
2023-04-18T04:21:22.329Z,168.04
2023-04-18T04:22:22.352Z,166.66
2023-04-18T04:23:22.382Z,167.33
2023-04-18T04:24:22.400Z,166.01
2023-04-18T04:25:22.425Z,165.17
2023-04-18T04:26:22.443Z,165.69
2023-04-18T04:27:22.453Z,165.08
2023-04-18T04:28:22.483Z,165.90
2023-04-18T04:29:22.487Z,165.57
2023-04-18T04:30:22.517Z,167.39
2023-04-18T04:31:22.597Z,168.87
2023-04-18T04:32:22.544Z,170.83
2023-04-18T04:33:22.547Z,171.22
2023-04-18T04:34:22.570Z,171.60
2023-04-18T04:35:22.596Z,172.08
2023-04-18T04:36:22.586Z,171.16
2023-04-18T04:37:22.637Z,169.49
2023-04-18T04:38:22.615Z,169.52
2023-04-18T04:39:22.645Z,170.13
2023-04-18T04:40:22.648Z,172.24
2023-04-18T04:41:22.678Z,171.04
2023-04-18T04:42:22.679Z,170.50
2023-04-18T04:43:22.681Z,171.39
2023-04-18T04:44:22.748Z,169.71
2023-04-18T04:45:22.713Z,172.47
2023-04-18T04:46:22.833Z,170.79
2023-04-18T04:47:22.809Z,173.83
2023-04-18T04:48:22.756Z,172.18
2023-04-18T04:49:22.765Z,172.28
2023-04-18T04:50:22.791Z,174.07
2023-04-18T04:51:22.801Z,174.62
2023-04-18T04:52:22.816Z,176.45
2023-04-18T04:53:22.834Z,174.37
2023-04-18T04:54:22.843Z,177.97
2023-04-18T04:55:22.863Z,176.99
2023-04-18T04:56:22.878Z,177.03
2023-04-18T04:57:22.869Z,176.75
2023-04-18T04:58:22.891Z,177.31
2023-04-18T04:59:22.928Z,178.89
2023-04-18T05:00:22.911Z,180.25
2023-04-18T05:01:23.094Z,178.44
2023-04-18T05:02:23.051Z,178.73
2023-04-18T05:03:23.072Z,178.54
2023-04-18T05:04:23.146Z,178.53
2023-04-18T05:05:22.982Z,178.77
2023-04-18T05:06:23.014Z,178.83
2023-04-18T05:07:23.027Z,180.21
2023-04-18T05:08:23.038Z,181.54
2023-04-18T05:09:23.039Z,179.71
2023-04-18T05:10:23.051Z,180.84
2023-04-18T05:11:23.065Z,181.90
2023-04-18T05:12:23.107Z,183.45
2023-04-18T05:13:23.116Z,183.57
2023-04-18T05:14:23.123Z,183.58
2023-04-18T05:15:23.125Z,182.89
2023-04-18T05:16:23.186Z,182.12
2023-04-18T05:17:23.178Z,183.36
2023-04-18T05:18:23.164Z,184.91
2023-04-18T05:19:23.178Z,185.51
2023-04-18T05:20:23.192Z,186.48
2023-04-18T05:21:23.222Z,185.61
2023-04-18T05:22:23.219Z,186.57
2023-04-18T05:23:23.251Z,187.25
2023-04-18T05:24:23.258Z,187.63
2023-04-18T05:25:23.281Z,185.96
2023-04-18T05:26:23.490Z,187.55
2023-04-18T05:27:23.308Z,192.62
2023-04-18T05:28:23.486Z,192.37
2023-04-18T05:29:23.349Z,190.49
2023-04-18T05:30:23.369Z,190.32
2023-04-18T05:31:23.464Z,187.72
2023-04-18T05:32:23.522Z,180.37
2023-04-18T05:33:23.495Z,175.79
2023-04-18T05:34:23.505Z,177.36
2023-04-18T05:35:23.524Z,173.00
2023-04-18T05:36:23.540Z,172.60
2023-04-18T05:37:23.612Z,170.72
2023-04-18T05:38:23.625Z,170.97
2023-04-18T05:39:23.715Z,167.84
2023-04-18T05:40:23.705Z,163.23
2023-04-18T05:41:23.749Z,165.78
2023-04-18T05:42:23.819Z,170.35
2023-04-18T05:43:24.030Z,172.43
2023-04-18T05:44:23.900Z,175.67
2023-04-18T05:45:23.942Z,179.78
2023-04-18T05:46:24.023Z,179.64
2023-04-18T05:47:24.057Z,181.44
2023-04-18T05:48:24.007Z,186.88
2023-04-18T05:49:24.041Z,195.64
2023-04-18T05:50:24.071Z,198.24
2023-04-18T05:51:24.107Z,203.91
2023-04-18T05:52:24.127Z,210.44
2023-04-18T05:53:24.164Z,212.11
2023-04-18T05:54:24.197Z,217.63
2023-04-18T05:55:24.515Z,221.14
2023-04-18T05:56:24.182Z,221.53
2023-04-18T05:57:24.226Z,227.00
2023-04-18T05:58:24.272Z,229.76
2023-04-18T05:59:24.322Z,234.45
2023-04-18T06:00:24.402Z,236.15
2023-04-18T06:01:24.432Z,236.75
2023-04-18T06:02:24.630Z,239.96
2023-04-18T06:03:24.643Z,240.25
2023-04-18T06:04:24.638Z,242.61
2023-04-18T06:05:25.668Z,244.34
2023-04-18T06:06:24.528Z,244.66
2023-04-18T06:07:24.555Z,246.20
2023-04-18T06:08:25.024Z,246.82
2023-04-18T06:09:24.587Z,246.36
2023-04-18T06:10:24.544Z,247.12
2023-04-18T06:11:24.570Z,248.84
2023-04-18T06:12:24.553Z,249.37
2023-04-18T06:13:24.546Z,249.57
2023-04-18T06:14:24.583Z,249.67
2023-04-18T06:15:24.606Z,245.13
2023-04-18T06:16:24.642Z,249.21
2023-04-18T06:17:24.687Z,250.00
2023-04-18T06:18:24.756Z,249.61
2023-04-18T06:19:24.782Z,242.92
2023-04-18T06:20:24.894Z,246.98
2023-04-18T06:21:24.916Z,248.22
2023-04-18T06:22:24.985Z,248.81
2023-04-18T06:23:25.516Z,249.18
2023-04-18T06:24:25.104Z,249.34
2023-04-18T06:25:25.184Z,246.71
2023-04-18T06:26:25.233Z,246.07
2023-04-18T06:27:31.678Z,246.55
2023-04-18T06:28:26.263Z,246.79
2023-04-18T06:29:25.263Z,247.75
2023-04-18T06:30:25.432Z,248.60
2023-04-18T06:31:25.277Z,244.94
2023-04-18T06:32:25.229Z,246.13
2023-04-18T06:33:25.501Z,221.94
2023-04-18T06:34:25.205Z,187.62
2023-04-18T06:35:26.642Z,176.19
2023-04-18T06:36:25.188Z,186.27
2023-04-18T06:37:25.217Z,187.03
2023-04-18T06:38:25.233Z,195.44
2023-04-18T06:39:25.308Z,197.42
2023-04-18T06:40:25.366Z,204.66
2023-04-18T06:41:25.392Z,206.38
2023-04-18T06:42:25.446Z,212.05
2023-04-18T06:43:25.498Z,221.44
2023-04-18T06:44:25.553Z,226.68
2023-04-18T06:45:26.092Z,226.88
2023-04-18T06:46:25.598Z,230.31
2023-04-18T06:47:25.632Z,233.38
2023-04-18T06:48:25.576Z,235.83
2023-04-18T06:49:26.692Z,234.67
2023-04-18T06:50:25.597Z,233.57
2023-04-18T06:51:25.656Z,234.50
2023-04-18T06:52:25.754Z,225.07
2023-04-18T06:53:25.784Z,233.77
2023-04-18T06:54:25.912Z,232.90
2023-04-18T06:55:25.888Z,225.49
2023-04-18T06:56:25.925Z,226.28
2023-04-18T06:57:26.005Z,199.88
2023-04-18T06:58:26.013Z,194.64
2023-04-18T06:59:25.993Z,187.44
2023-04-18T07:00:25.993Z,186.29
2023-04-18T07:01:26.050Z,182.31
2023-04-18T07:02:26.178Z,180.11
2023-04-18T07:03:26.562Z,176.32
2023-04-18T07:04:26.370Z,176.26
2023-04-18T07:05:26.169Z,174.01
2023-04-18T07:06:26.220Z,169.42
2023-04-18T07:07:26.277Z,169.13
2023-04-18T07:08:26.337Z,170.86
2023-04-18T07:09:26.434Z,170.54
2023-04-18T07:10:26.484Z,167.16
2023-04-18T07:11:26.517Z,161.67
2023-04-18T07:12:26.577Z,145.06
2023-04-18T07:13:26.556Z,146.32
2023-04-18T07:14:26.549Z,150.12
2023-04-18T07:15:26.572Z,161.88
2023-04-18T07:16:26.666Z,165.03
2023-04-18T07:17:26.577Z,162.21
2023-04-18T07:18:36.585Z,161.87
2023-04-18T07:19:27.589Z,162.06
2023-04-18T07:20:26.575Z,163.14
2023-04-18T07:21:26.590Z,164.43
2023-04-18T07:22:26.550Z,166.30
2023-04-18T07:23:26.551Z,183.90
2023-04-18T07:24:26.546Z,178.79
2023-04-18T07:25:26.520Z,179.09
2023-04-18T07:26:26.598Z,174.24
2023-04-18T07:27:26.503Z,147.38
2023-04-18T07:28:26.531Z,139.32
2023-04-18T07:29:26.510Z,135.21
2023-04-18T07:30:26.520Z,131.92
2023-04-18T07:31:26.547Z,133.06
2023-04-18T07:32:26.540Z,143.78
2023-04-18T07:33:26.486Z,146.55
2023-04-18T07:34:26.620Z,148.19
2023-04-18T07:35:26.514Z,157.34
2023-04-18T07:36:26.518Z,165.83
2023-04-18T07:37:26.567Z,167.92
2023-04-18T07:38:26.510Z,173.14
2023-04-18T07:39:26.526Z,188.07
2023-04-18T07:40:27.124Z,195.17
2023-04-18T07:41:26.590Z,198.47
2023-04-18T07:42:26.666Z,205.58
2023-04-18T07:43:26.719Z,208.88
2023-04-18T07:44:27.029Z,210.39
2023-04-18T07:45:26.736Z,202.37
2023-04-18T07:46:26.808Z,210.17
2023-04-18T07:47:27.581Z,209.12
2023-04-18T07:48:26.713Z,211.87
2023-04-18T07:49:27.040Z,214.66
2023-04-18T07:50:26.764Z,216.25
2023-04-18T07:51:26.700Z,217.51
2023-04-18T07:52:26.688Z,219.43
2023-04-18T07:53:26.708Z,289.79
2023-04-18T07:54:26.667Z,267.92
2023-04-18T07:55:26.682Z,239.23
2023-04-18T07:56:26.666Z,239.40
2023-04-18T07:57:26.642Z,230.95
2023-04-18T07:58:26.670Z,227.20
2023-04-18T07:59:26.645Z,220.44
2023-04-18T08:00:26.877Z,223.51
2023-04-18T08:01:26.638Z,222.11
2023-04-18T08:02:26.790Z,220.32
2023-04-18T08:03:26.840Z,222.82
2023-04-18T08:04:29.741Z,221.72
2023-04-18T08:05:26.707Z,221.82
2023-04-18T08:06:26.662Z,222.10
2023-04-18T08:07:26.693Z,222.62
2023-04-18T08:08:26.681Z,219.96
2023-04-18T08:09:26.669Z,219.79
2023-04-18T08:10:26.563Z,220.45
2023-04-18T08:11:26.570Z,210.99
2023-04-18T08:12:26.569Z,218.78
2023-04-18T08:13:26.578Z,215.77
2023-04-18T08:14:27.039Z,213.75
2023-04-18T08:15:26.540Z,216.64
2023-04-18T08:16:26.598Z,217.21
2023-04-18T08:17:26.627Z,219.27
2023-04-18T08:18:26.549Z,218.81
2023-04-18T08:19:26.573Z,221.67
2023-04-18T08:20:26.560Z,218.79
2023-04-18T08:21:26.564Z,216.51
2023-04-18T08:22:26.674Z,199.87
2023-04-18T08:23:26.488Z,207.51
2023-04-18T08:24:26.557Z,215.88
2023-04-18T08:25:26.488Z,219.67
2023-04-18T08:26:26.492Z,223.08
2023-04-18T08:27:26.475Z,223.73
2023-04-18T08:28:26.467Z,223.40
2023-04-18T08:29:26.560Z,221.64
2023-04-18T08:30:26.503Z,222.09
2023-04-18T08:31:26.507Z,221.48
2023-04-18T08:32:26.470Z,221.34
2023-04-18T08:33:26.428Z,219.57
2023-04-18T08:34:26.434Z,219.30
2023-04-18T08:35:26.408Z,187.28
2023-04-18T08:36:26.403Z,172.06
2023-04-18T08:37:26.415Z,181.04
2023-04-18T08:38:26.395Z,183.72
2023-04-18T08:39:26.388Z,191.65
2023-04-18T08:40:26.404Z,198.16
2023-04-18T08:41:26.372Z,203.30
2023-04-18T08:42:26.369Z,206.52
2023-04-18T08:43:26.375Z,207.26
2023-04-18T08:44:26.364Z,208.67
2023-04-18T08:45:26.374Z,209.45
2023-04-18T08:46:26.421Z,209.11
2023-04-18T08:47:26.389Z,207.99
2023-04-18T08:48:26.354Z,208.83
2023-04-18T08:49:26.327Z,210.74
2023-04-18T08:50:26.324Z,211.22
2023-04-18T08:51:26.316Z,213.93
2023-04-18T08:52:26.313Z,214.07
2023-04-18T08:53:26.301Z,214.10
2023-04-18T08:54:27.390Z,215.74
2023-04-18T08:55:26.319Z,216.21
2023-04-18T08:56:26.551Z,215.45
2023-04-18T08:57:26.262Z,217.43
2023-04-18T08:58:26.286Z,217.13
2023-04-18T08:59:26.265Z,217.29
2023-04-18T09:00:26.245Z,217.95
2023-04-18T09:01:26.290Z,218.08
2023-04-18T09:02:26.315Z,218.81
2023-04-18T09:03:26.261Z,216.71
2023-04-18T09:04:26.264Z,217.90
2023-04-18T09:05:26.220Z,216.65
2023-04-18T09:06:27.769Z,217.52
2023-04-18T09:07:26.206Z,216.26
2023-04-18T09:08:26.201Z,215.55
2023-04-18T09:09:26.193Z,215.27
2023-04-18T09:10:27.050Z,215.08
2023-04-18T09:11:26.645Z,215.97
2023-04-18T09:12:26.279Z,214.80
2023-04-18T09:13:26.350Z,214.50
2023-04-18T09:14:26.374Z,212.19
2023-04-18T09:15:26.428Z,211.85
2023-04-18T09:16:26.614Z,211.78
2023-04-18T09:17:26.521Z,211.71
2023-04-18T09:18:26.569Z,210.07
2023-04-18T09:19:26.629Z,208.25
2023-04-18T09:20:26.678Z,207.94
2023-04-18T09:21:27.075Z,207.55
2023-04-18T09:22:26.783Z,177.98
2023-04-18T09:23:26.828Z,160.18
2023-04-18T09:24:26.877Z,160.06
2023-04-18T09:25:27.079Z,165.32
2023-04-18T09:26:26.978Z,173.96
2023-04-18T09:27:26.984Z,175.82
2023-04-18T09:28:27.121Z,172.52
2023-04-18T09:29:27.018Z,182.53
2023-04-18T09:30:27.066Z,177.17
2023-04-18T09:31:27.186Z,179.26
2023-04-18T09:32:27.300Z,190.32
2023-04-18T09:33:27.105Z,179.81
2023-04-18T09:34:27.081Z,192.09
2023-04-18T09:35:27.098Z,198.26
2023-04-18T09:36:27.840Z,200.66
2023-04-18T09:37:27.120Z,201.48
2023-04-18T09:38:27.105Z,204.52
2023-04-18T09:39:27.110Z,207.31
2023-04-18T09:40:27.112Z,205.73
2023-04-18T09:41:27.588Z,167.03
2023-04-18T09:42:28.937Z,191.37
2023-04-18T09:43:27.105Z,173.08
2023-04-18T09:44:27.110Z,129.62
2023-04-18T09:45:27.175Z,118.23
2023-04-18T09:46:27.188Z,99.89
2023-04-18T09:47:27.176Z,146.40
2023-04-18T09:48:27.181Z,162.37
2023-04-18T09:49:27.179Z,162.61
2023-04-18T09:50:27.167Z,142.93
2023-04-18T09:51:27.580Z,139.82
2023-04-18T09:52:27.186Z,146.51
2023-04-18T09:53:27.222Z,147.29
2023-04-18T09:54:27.203Z,146.88
2023-04-18T09:55:27.210Z,124.88
2023-04-18T09:56:27.233Z,138.61
2023-04-18T09:57:27.213Z,103.49
2023-04-18T09:58:27.212Z,119.87
2023-04-18T09:59:27.213Z,101.75
2023-04-18T10:00:27.596Z,61.99
2023-04-18T10:01:27.320Z,86.01
2023-04-18T10:02:27.361Z,63.03
2023-04-18T10:03:27.301Z,70.05
2023-04-18T10:04:27.323Z,57.12
2023-04-18T10:05:27.346Z,62.53
2023-04-18T10:06:27.304Z,52.60
2023-04-18T10:07:27.315Z,54.86
2023-04-18T10:08:27.331Z,51.45
2023-04-18T10:09:27.328Z,42.86
2023-04-18T10:10:27.351Z,70.62
2023-04-18T10:11:27.381Z,63.21
2023-04-18T10:12:27.377Z,69.65
2023-04-18T10:13:27.397Z,55.34
2023-04-18T10:14:28.476Z,90.45
2023-04-18T10:15:27.479Z,65.40
2023-04-18T10:16:27.466Z,47.49
2023-04-18T10:17:29.192Z,56.37
2023-04-18T10:18:27.551Z,55.37
2023-04-18T10:19:27.525Z,69.34
2023-04-18T10:20:27.547Z,57.35
2023-04-18T10:21:27.642Z,52.91
2023-04-18T10:22:27.623Z,8.14
2023-04-18T10:23:28.146Z,0.00
2023-04-18T10:24:27.676Z,0.00
2023-04-18T10:25:27.683Z,0.00
2023-04-18T10:26:27.736Z,0.00
2023-04-18T10:27:28.512Z,0.00
2023-04-18T10:28:27.801Z,0.00
2023-04-18T10:29:27.833Z,0.00
2023-04-18T10:30:27.889Z,0.00
2023-04-18T10:31:28.067Z,0.00
2023-04-18T10:32:27.972Z,0.00
2023-04-18T10:33:31.092Z,0.00
2023-04-18T10:34:27.965Z,0.00
2023-04-18T10:35:27.958Z,0.00
2023-04-18T10:36:27.962Z,0.00
2023-04-18T10:37:27.960Z,0.00
2023-04-18T10:38:27.954Z,0.00
2023-04-18T10:39:27.953Z,0.00
2023-04-18T10:40:27.921Z,0.00
2023-04-18T10:41:27.953Z,0.13
2023-04-18T10:42:27.908Z,0.00
2023-04-18T10:43:27.920Z,4.09
2023-04-18T10:44:27.923Z,15.63
2023-04-18T10:45:27.890Z,35.89
2023-04-18T10:46:31.601Z,58.72
2023-04-18T10:47:27.954Z,58.80
2023-04-18T10:48:27.879Z,59.90
2023-04-18T10:49:30.269Z,69.08
2023-04-18T10:50:27.865Z,59.57
2023-04-18T10:51:27.851Z,65.43
2023-04-18T10:52:27.845Z,78.44
2023-04-18T10:53:27.835Z,95.82
2023-04-18T10:54:27.837Z,110.14
2023-04-18T10:55:27.831Z,109.11
2023-04-18T10:56:27.844Z,110.21
2023-04-18T10:57:27.840Z,119.25
2023-04-18T10:58:27.811Z,123.82
2023-04-18T10:59:27.798Z,127.45
2023-04-18T11:00:27.823Z,137.60
2023-04-18T11:01:30.046Z,147.21
2023-04-18T11:02:27.848Z,147.60
2023-04-18T11:03:27.865Z,149.27
2023-04-18T11:04:27.810Z,150.44
2023-04-18T11:05:27.786Z,156.09
2023-04-18T11:06:27.819Z,164.06
2023-04-18T11:07:29.531Z,162.94
2023-04-18T11:08:27.756Z,164.28
2023-04-18T11:09:27.755Z,165.69
2023-04-18T11:10:27.800Z,163.85
2023-04-18T11:11:28.121Z,166.14
2023-04-18T11:12:28.125Z,169.50
2023-04-18T11:13:27.729Z,170.94
2023-04-18T11:14:27.707Z,158.03
2023-04-18T11:15:29.700Z,153.52
2023-04-18T11:16:28.192Z,149.77
2023-04-18T11:17:28.129Z,154.08
2023-04-18T11:18:27.687Z,166.29
2023-04-18T11:19:27.690Z,171.29
2023-04-18T11:20:27.679Z,174.48
2023-04-18T11:21:30.247Z,179.00
2023-04-18T11:22:28.121Z,179.20
2023-04-18T11:23:27.649Z,180.23
2023-04-18T11:24:27.659Z,183.08
2023-04-18T11:25:27.650Z,185.74
2023-04-18T11:26:27.641Z,190.44
2023-04-18T11:27:27.639Z,191.20
2023-04-18T11:28:27.629Z,192.60
2023-04-18T11:29:27.609Z,192.61
2023-04-18T11:30:27.603Z,193.11
2023-04-18T11:31:27.627Z,193.97
2023-04-18T11:32:27.815Z,196.18
2023-04-18T11:33:27.586Z,196.73
2023-04-18T11:34:27.606Z,197.89
2023-04-18T11:35:27.583Z,198.90
2023-04-18T11:36:27.582Z,199.70
2023-04-18T11:37:27.557Z,201.10
2023-04-18T11:38:27.564Z,201.19
2023-04-18T11:39:27.563Z,200.84
2023-04-18T11:40:27.542Z,201.89
2023-04-18T11:41:27.540Z,201.84
2023-04-18T11:42:27.527Z,203.22
2023-04-18T11:43:27.532Z,203.63
2023-04-18T11:44:27.507Z,204.40
2023-04-18T11:45:27.538Z,204.03
2023-04-18T11:46:27.546Z,204.12
2023-04-18T11:47:27.511Z,204.93
2023-04-18T11:48:27.503Z,204.74
2023-04-18T11:49:27.504Z,205.67
2023-04-18T11:50:27.584Z,206.58
2023-04-18T11:51:27.471Z,205.54
2023-04-18T11:52:27.474Z,206.96
2023-04-18T11:53:27.475Z,207.00
2023-04-18T11:54:27.469Z,208.81
2023-04-18T11:55:27.457Z,208.57
2023-04-18T11:56:27.462Z,207.93
2023-04-18T11:57:27.456Z,208.88
2023-04-18T11:58:27.474Z,208.87
2023-04-18T11:59:27.520Z,208.96
2023-04-18T12:00:27.549Z,209.64
2023-04-18T12:01:27.605Z,209.27
2023-04-18T12:02:27.799Z,188.76
2023-04-18T12:03:27.894Z,190.93
2023-04-18T12:04:27.813Z,188.29
2023-04-18T12:05:28.029Z,195.86
2023-04-18T12:06:27.854Z,152.09
2023-04-18T12:07:27.890Z,100.85
2023-04-18T12:08:27.923Z,80.89
2023-04-18T12:09:27.915Z,91.31
2023-04-18T12:10:27.977Z,97.64
2023-04-18T12:11:27.952Z,103.97
2023-04-18T12:12:27.945Z,109.71
2023-04-18T12:13:27.983Z,120.92
2023-04-18T12:14:27.968Z,125.01
2023-04-18T12:15:27.959Z,125.80
2023-04-18T12:16:28.202Z,130.27
2023-04-18T12:17:27.978Z,133.60
2023-04-18T12:18:27.989Z,125.39
2023-04-18T12:19:28.074Z,133.15
2023-04-18T12:20:28.096Z,145.46
2023-04-18T12:21:28.160Z,163.98
2023-04-18T12:22:28.643Z,172.72
2023-04-18T12:23:28.271Z,173.27
2023-04-18T12:24:28.309Z,175.82
2023-04-18T12:25:28.350Z,182.77
2023-04-18T12:26:28.416Z,186.01
2023-04-18T12:27:28.451Z,188.61
2023-04-18T12:28:28.469Z,188.94
2023-04-18T12:29:28.502Z,189.77
2023-04-18T12:30:28.566Z,194.58
2023-04-18T12:31:28.686Z,193.34